• Join FlightAware (Why Join?)
  • Login
  • US Flag 
01:09AM EDT


 

Airport Tracker/Info


-or-


 

Live Flight TrackerFlight Track Log ✈ FLG3395 ✈ 24-Oct-2013 ✈ KJFK - KDCA

Flight Track Log - Related Links

Times and Time Zones

All times are in EDT time to prevent confusion due to time zone crossing. See the FLG3395 flight status page for this flight to view local times or setup timezone preferences in your user account.

Time Position Orientation Groundspeed Altitude Reporting Facility
EDT Latitude Longitude Course Direction KTS MPH feet Rate Location/Type
09:35PM 40.6333 -73.8333 246° West 157 181 1,900  Level New York TRACON
09:36PM 40.6167 -73.8833 246° West 190 219 4,700 2,340 Climbing New York TRACON
09:37PM 40.5667 -73.9333 217° Southwest 243 280 6,400 2,520 Climbing New York TRACON
09:38PM 40.4577 -74.1267 232° Southwest  Level Estimated
09:38PM 40.5000 -73.9833 210° Southwest 279 321 9,800  Level New York TRACON
09:39PM 40.4120 -74.2133 217° Southwest  Level Estimated
09:40PM 40.3662 -74.2998 229° Southwest  Level Estimated
09:40PM 40.3789 -74.1847 232° Southwest 347 399 11,400  Level New York Center
09:41PM 40.3204 -74.3862 246° West  Level Estimated
09:41PM 40.3150 -74.3014 234° Southwest 358 412 14,700  Level New York Center
09:42PM 40.2600 -74.3992 234° Southwest 364 419 16,500 1,140 Climbing New York Center
09:43PM 40.2022 -74.5131 236° Southwest 379 436 17,000 360 Climbing New York Center
09:44PM 40.1875 -74.6428 262° West 362 417 17,300 480 Climbing New York Center
09:45PM 40.1836 -74.7592 268° West 324 373 18,000 300 Climbing New York Center
09:46PM 40.1742 -74.8564 263° West 309 356 18,000  Level New York Center
09:47PM 40.1639 -74.9728 263° West 301 346 18,000  Level New York Center
09:48PM 40.1536 -75.0808 263° West 301 346 18,000  Level New York Center
09:49PM 40.1456 -75.1861 264° West 301 346 18,000  Level New York Center
09:50PM 40.1347 -75.3050 263° West 306 352 18,000  Level New York Center
09:51PM 40.1011 -75.4222 249° West 345 397 18,000  Level New York Center
09:52PM 40.0328 -75.5153 226° Southwest 345 397 18,000  Level New York Center
09:53PM 39.9642 -75.6108 227° Southwest 366 421 18,000  Level New York Center
09:54PM 39.8997 -75.7064 229° Southwest 361 415 18,000 -180 Level New York Center
09:55PM 39.8497 -75.8031 236° Southwest 328 377 17,700 -720 Descending New York Center
09:56PM 39.8044 -75.8889 236° Southwest 303 349 16,600 -900 Descending New York Center
09:57PM 39.7611 -75.9750 237° Southwest 297 342 16,000 -360 Descending New York Center
09:58PM 39.7111 -76.0631 234° Southwest 297 342 15,900 -240 Descending New York Center
09:59PM 39.6722 -76.1436 238° Southwest 297 342 15,600 -720 Descending New York Center
10:01PM 39.6167 -76.2833 243° Southwest 285 328 14,100 -960 Descending Potomac TRACON
10:02PM 39.6167 -76.4000 270° West 282 325 13,200 -960 Descending Potomac TRACON
10:03PM 39.5667 -76.4833 232° Southwest 294 338 12,100 -600 Descending Potomac TRACON
10:04PM 39.5000 -76.5167 201° Southwest 294 338 12,100 -60 Level Potomac TRACON
10:05PM 39.4167 -76.5500 197° South 294 338 12,000 -60 Descending Potomac TRACON
10:06PM 39.3500 -76.5833 201° Southwest 287 330 12,000 -420 Level Potomac TRACON
10:07PM 39.2833 -76.6167 201° Southwest 291 335 11,300 -900 Descending Potomac TRACON
10:08PM 39.2000 -76.6500 197° South 283 326 10,300 -660 Descending Potomac TRACON
10:09PM 39.1333 -76.7000 210° Southwest 285 328 10,000 -180 Descending Potomac TRACON
10:10PM 39.0667 -76.7833 224° Southwest 283 326 10,000 -600 Level Potomac TRACON
10:11PM 39.0167 -76.8333 218° Southwest 273 314 8,800 -1,560 Descending Potomac TRACON
10:12PM 38.9667 -76.9000 226° Southwest 264 304 7,100 -1,440 Descending Potomac TRACON
10:13PM 38.9000 -76.9333 201° Southwest 275 316 6,000 -1,200 Descending Potomac TRACON
10:14PM 38.8167 -76.9500 189° South 275 316 4,600 -1,380 Descending Potomac TRACON
10:15PM 38.7500 -76.9333 169° South 267 307 3,100 -1,200 Descending Potomac TRACON
10:16PM 38.7000 -76.9833 218° Southwest 218 251 2,300 -600 Descending Potomac TRACON
10:17PM 38.7333 -77.0167 322° Northwest 204 235 2,000 -480 Descending Potomac TRACON
10:18PM 38.7833 -77.0333 345° North 155 178 1,400 -720 Descending Potomac TRACON
10:19PM 38.8167 -77.0333 360° North 130 150 500 -840 Descending Potomac TRACON